sensor_id;sensor_type;location;lat;lon;timestamp;P1;durP1;ratioP1;P2;durP2;ratioP2
15183;SDS011;7693;49.266;7.104;2023-07-31T04:41:59;4.93;;;3.13;;
15183;SDS011;7693;49.266;7.104;2023-07-31T04:44:25;4.35;;;3.03;;
15183;SDS011;7693;49.266;7.104;2023-07-31T04:46:51;6.88;;;3.67;;
15183;SDS011;7693;49.266;7.104;2023-07-31T04:49:16;4.70;;;3.03;;
15183;SDS011;7693;49.266;7.104;2023-07-31T04:51:42;3.90;;;3.10;;
15183;SDS011;7693;49.266;7.104;2023-07-31T04:54:07;4.15;;;3.40;;
15183;SDS011;7693;49.266;7.104;2023-07-31T04:56:33;4.97;;;3.20;;
15183;SDS011;7693;49.266;7.104;2023-07-31T04:58:58;5.40;;;3.08;;
15183;SDS011;7693;49.266;7.104;2023-07-31T05:01:24;4.78;;;3.10;;
15183;SDS011;7693;49.266;7.104;2023-07-31T05:03:50;5.90;;;3.20;;
15183;SDS011;7693;49.266;7.104;2023-07-31T05:06:15;4.28;;;2.85;;
15183;SDS011;7693;49.266;7.104;2023-07-31T05:08:41;6.18;;;3.03;;
15183;SDS011;7693;49.266;7.104;2023-07-31T05:11:07;3.70;;;2.97;;
15183;SDS011;7693;49.266;7.104;2023-07-31T05:13:32;3.47;;;2.95;;
15183;SDS011;7693;49.266;7.104;2023-07-31T05:15:58;4.85;;;2.75;;
15183;SDS011;7693;49.266;7.104;2023-07-31T05:18:23;4.07;;;3.05;;
15183;SDS011;7693;49.266;7.104;2023-07-31T05:20:49;4.43;;;2.85;;
15183;SDS011;7693;49.266;7.104;2023-07-31T05:23:14;4.35;;;3.35;;
15183;SDS011;7693;49.266;7.104;2023-07-31T05:25:40;4.38;;;3.00;;
15183;SDS011;7693;49.266;7.104;2023-07-31T05:28:05;3.15;;;2.88;;
15183;SDS011;7693;49.266;7.104;2023-07-31T05:30:31;4.68;;;2.63;;
15183;SDS011;7693;49.266;7.104;2023-07-31T05:32:57;3.97;;;2.67;;
15183;SDS011;7693;49.266;7.104;2023-07-31T05:35:22;7.68;;;3.08;;
15183;SDS011;7693;49.266;7.104;2023-07-31T05:37:48;5.75;;;3.05;;
15183;SDS011;7693;49.266;7.104;2023-07-31T05:40:14;5.30;;;3.20;;
15183;SDS011;7693;49.266;7.104;2023-07-31T05:42:39;5.22;;;3.03;;
15183;SDS011;7693;49.266;7.104;2023-07-31T05:45:06;3.30;;;3.00;;
15183;SDS011;7693;49.266;7.104;2023-07-31T05:47:32;4.05;;;3.00;;
15183;SDS011;7693;49.266;7.104;2023-07-31T05:49:58;5.75;;;3.15;;
15183;SDS011;7693;49.266;7.104;2023-07-31T05:52:23;3.60;;;2.90;;
15183;SDS011;7693;49.266;7.104;2023-07-31T05:54:49;5.30;;;3.28;;
15183;SDS011;7693;49.266;7.104;2023-07-31T05:57:15;3.03;;;2.80;;
15183;SDS011;7693;49.266;7.104;2023-07-31T05:59:41;6.70;;;3.22;;
15183;SDS011;7693;49.266;7.104;2023-07-31T06:02:06;4.03;;;2.95;;
15183;SDS011;7693;49.266;7.104;2023-07-31T06:04:32;6.20;;;2.90;;
15183;SDS011;7693;49.266;7.104;2023-07-31T06:06:57;4.55;;;3.17;;
15183;SDS011;7693;49.266;7.104;2023-07-31T06:09:23;4.32;;;2.80;;
15183;SDS011;7693;49.266;7.104;2023-07-31T06:11:50;3.25;;;2.92;;
15183;SDS011;7693;49.266;7.104;2023-07-31T06:14:16;6.20;;;3.10;;
15183;SDS011;7693;49.266;7.104;2023-07-31T06:16:42;3.08;;;2.83;;
15183;SDS011;7693;49.266;7.104;2023-07-31T06:19:09;3.67;;;3.38;;
15183;SDS011;7693;49.266;7.104;2023-07-31T06:21:34;4.60;;;3.00;;
15183;SDS011;7693;49.266;7.104;2023-07-31T06:24:02;6.70;;;3.10;;
15183;SDS011;7693;49.266;7.104;2023-07-31T06:26:28;3.10;;;2.90;;
15183;SDS011;7693;49.266;7.104;2023-07-31T06:28:54;3.38;;;3.05;;
15183;SDS011;7693;49.266;7.104;2023-07-31T06:31:19;3.83;;;2.95;;
15183;SDS011;7693;49.266;7.104;2023-07-31T06:33:45;4.88;;;3.10;;
15183;SDS011;7693;49.266;7.104;2023-07-31T06:36:11;4.90;;;2.67;;
15183;SDS011;7693;49.266;7.104;2023-07-31T06:38:36;3.38;;;2.65;;
15183;SDS011;7693;49.266;7.104;2023-07-31T06:41:02;6.25;;;3.30;;
15183;SDS011;7693;49.266;7.104;2023-07-31T06:43:28;6.85;;;2.63;;
15183;SDS011;7693;49.266;7.104;2023-07-31T06:45:54;3.17;;;2.65;;
15183;SDS011;7693;49.266;7.104;2023-07-31T06:48:20;4.22;;;3.00;;
15183;SDS011;7693;49.266;7.104;2023-07-31T06:50:45;3.80;;;3.00;;
15183;SDS011;7693;49.266;7.104;2023-07-31T06:53:11;5.40;;;3.25;;
15183;SDS011;7693;49.266;7.104;2023-07-31T06:55:36;4.20;;;2.60;;
15183;SDS011;7693;49.266;7.104;2023-07-31T06:58:02;4.53;;;2.67;;
15183;SDS011;7693;49.266;7.104;2023-07-31T07:00:28;4.53;;;2.92;;
15183;SDS011;7693;49.266;7.104;2023-07-31T07:02:53;6.03;;;3.05;;
15183;SDS011;7693;49.266;7.104;2023-07-31T07:05:19;2.50;;;2.30;;
15183;SDS011;7693;49.266;7.104;2023-07-31T07:07:45;3.97;;;2.90;;
15183;SDS011;7693;49.266;7.104;2023-07-31T07:10:11;4.60;;;2.65;;
15183;SDS011;7693;49.266;7.104;2023-07-31T07:12:36;3.15;;;2.70;;
15183;SDS011;7693;49.266;7.104;2023-07-31T07:15:02;3.58;;;3.00;;
15183;SDS011;7693;49.266;7.104;2023-07-31T07:17:28;3.22;;;2.72;;
15183;SDS011;7693;49.266;7.104;2023-07-31T07:19:56;4.05;;;2.78;;
15183;SDS011;7693;49.266;7.104;2023-07-31T07:22:22;4.38;;;3.03;;
15183;SDS011;7693;49.266;7.104;2023-07-31T07:24:48;3.45;;;2.80;;
15183;SDS011;7693;49.266;7.104;2023-07-31T07:27:13;3.33;;;3.03;;
15183;SDS011;7693;49.266;7.104;2023-07-31T07:29:39;2.78;;;2.58;;
15183;SDS011;7693;49.266;7.104;2023-07-31T07:32:05;4.93;;;2.92;;
15183;SDS011;7693;49.266;7.104;2023-07-31T07:34:31;3.55;;;2.70;;
15183;SDS011;7693;49.266;7.104;2023-07-31T07:36:57;3.30;;;2.70;;
15183;SDS011;7693;49.266;7.104;2023-07-31T07:39:22;4.20;;;2.78;;
15183;SDS011;7693;49.266;7.104;2023-07-31T07:41:48;5.40;;;2.80;;
15183;SDS011;7693;49.266;7.104;2023-07-31T07:44:13;5.50;;;2.90;;
15183;SDS011;7693;49.266;7.104;2023-07-31T07:46:39;6.68;;;3.50;;
15183;SDS011;7693;49.266;7.104;2023-07-31T07:49:05;6.30;;;3.13;;
15183;SDS011;7693;49.266;7.104;2023-07-31T07:51:31;6.95;;;3.25;;
15183;SDS011;7693;49.266;7.104;2023-07-31T07:53:57;3.40;;;2.72;;
15183;SDS011;7693;49.266;7.104;2023-07-31T07:56:23;5.82;;;3.20;;
15183;SDS011;7693;49.266;7.104;2023-07-31T07:58:50;5.60;;;3.17;;
15183;SDS011;7693;49.266;7.104;2023-07-31T08:01:16;3.20;;;2.60;;
15183;SDS011;7693;49.266;7.104;2023-07-31T08:03:41;2.80;;;2.65;;
15183;SDS011;7693;49.266;7.104;2023-07-31T08:06:07;4.40;;;2.88;;
15183;SDS011;7693;49.266;7.104;2023-07-31T08:08:34;4.30;;;3.00;;
15183;SDS011;7693;49.266;7.104;2023-07-31T08:11:03;4.40;;;2.90;;
15183;SDS011;7693;49.266;7.104;2023-07-31T08:13:29;6.30;;;3.25;;
15183;SDS011;7693;49.266;7.104;2023-07-31T08:15:54;5.95;;;3.15;;
15183;SDS011;7693;49.266;7.104;2023-07-31T08:18:20;3.47;;;2.83;;
15183;SDS011;7693;49.266;7.104;2023-07-31T08:20:45;5.75;;;2.65;;
15183;SDS011;7693;49.266;7.104;2023-07-31T08:23:11;4.88;;;2.97;;
15183;SDS011;7693;49.266;7.104;2023-07-31T08:25:37;7.03;;;3.58;;
15183;SDS011;7693;49.266;7.104;2023-07-31T08:28:03;5.53;;;3.10;;
15183;SDS011;7693;49.266;7.104;2023-07-31T08:30:29;5.47;;;2.83;;
15183;SDS011;7693;49.266;7.104;2023-07-31T08:32:55;4.65;;;2.80;;
15183;SDS011;7693;49.266;7.104;2023-07-31T08:35:21;7.40;;;3.33;;
15183;SDS011;7693;49.266;7.104;2023-07-31T08:37:46;3.78;;;2.80;;
15183;SDS011;7693;49.266;7.104;2023-07-31T08:40:12;4.78;;;2.75;;
15183;SDS011;7693;49.266;7.104;2023-07-31T08:42:45;6.07;;;2.92;;
15183;SDS011;7693;49.266;7.104;2023-07-31T08:45:18;4.93;;;3.08;;
15183;SDS011;7693;49.266;7.104;2023-07-31T08:47:45;4.53;;;2.70;;
15183;SDS011;7693;49.266;7.104;2023-07-31T08:50:15;4.60;;;2.90;;
15183;SDS011;7693;49.266;7.104;2023-07-31T08:52:42;3.15;;;2.80;;
15183;SDS011;7693;49.266;7.104;2023-07-31T08:55:08;2.90;;;2.60;;
15183;SDS011;7693;49.266;7.104;2023-07-31T08:57:34;4.43;;;3.08;;
15183;SDS011;7693;49.266;7.104;2023-07-31T09:00:02;4.07;;;2.67;;
15183;SDS011;7693;49.266;7.104;2023-07-31T09:02:33;7.43;;;2.92;;
15183;SDS011;7693;49.266;7.104;2023-07-31T09:05:03;3.03;;;2.78;;
15183;SDS011;7693;49.266;7.104;2023-07-31T09:07:30;5.70;;;3.38;;
15183;SDS011;7693;49.266;7.104;2023-07-31T09:09:58;3.20;;;2.90;;
15183;SDS011;7693;49.266;7.104;2023-07-31T09:12:25;3.78;;;2.80;;
15183;SDS011;7693;49.266;7.104;2023-07-31T09:14:51;3.38;;;3.00;;
15183;SDS011;7693;49.266;7.104;2023-07-31T09:17:28;4.40;;;2.85;;
15183;SDS011;7693;49.266;7.104;2023-07-31T09:20:12;4.40;;;2.92;;
15183;SDS011;7693;49.266;7.104;2023-07-31T09:22:39;6.82;;;3.13;;
15183;SDS011;7693;49.266;7.104;2023-07-31T09:25:18;3.83;;;3.10;;
15183;SDS011;7693;49.266;7.104;2023-07-31T09:27:53;3.78;;;2.63;;
15183;SDS011;7693;49.266;7.104;2023-07-31T09:30:25;4.50;;;3.20;;
15183;SDS011;7693;49.266;7.104;2023-07-31T09:32:51;4.80;;;3.17;;
15183;SDS011;7693;49.266;7.104;2023-07-31T09:35:28;4.57;;;3.08;;
15183;SDS011;7693;49.266;7.104;2023-07-31T09:38:03;5.40;;;2.88;;
15183;SDS011;7693;49.266;7.104;2023-07-31T09:40:31;7.13;;;3.90;;
15183;SDS011;7693;49.266;7.104;2023-07-31T09:43:01;3.25;;;3.00;;
15183;SDS011;7693;49.266;7.104;2023-07-31T09:45:28;4.95;;;3.42;;
15183;SDS011;7693;49.266;7.104;2023-07-31T09:47:55;3.88;;;3.40;;
15183;SDS011;7693;49.266;7.104;2023-07-31T09:50:22;4.40;;;3.13;;
15183;SDS011;7693;49.266;7.104;2023-07-31T09:52:51;6.75;;;3.00;;
15183;SDS011;7693;49.266;7.104;2023-07-31T09:55:18;5.60;;;3.30;;
15183;SDS011;7693;49.266;7.104;2023-07-31T09:57:45;7.40;;;3.22;;
15183;SDS011;7693;49.266;7.104;2023-07-31T12:29:54;4.88;;;3.08;;
15183;SDS011;7693;49.266;7.104;2023-07-31T12:32:23;4.82;;;3.40;;
15183;SDS011;7693;49.266;7.104;2023-07-31T12:34:54;3.72;;;3.20;;
15183;SDS011;7693;49.266;7.104;2023-07-31T12:37:24;8.45;;;3.33;;
15183;SDS011;7693;49.266;7.104;2023-07-31T12:39:49;5.00;;;3.45;;
15183;SDS011;7693;49.266;7.104;2023-07-31T12:42:17;3.50;;;3.20;;
15183;SDS011;7693;49.266;7.104;2023-07-31T12:44:42;3.80;;;2.88;;
15183;SDS011;7693;49.266;7.104;2023-07-31T12:47:08;4.57;;;3.30;;
15183;SDS011;7693;49.266;7.104;2023-07-31T12:49:34;7.70;;;2.95;;
15183;SDS011;7693;49.266;7.104;2023-07-31T12:51:59;3.38;;;2.83;;
15183;SDS011;7693;49.266;7.104;2023-07-31T12:54:25;3.40;;;2.92;;
15183;SDS011;7693;49.266;7.104;2023-07-31T12:56:50;3.42;;;2.80;;
15183;SDS011;7693;49.266;7.104;2023-07-31T12:59:16;3.42;;;3.00;;
15183;SDS011;7693;49.266;7.104;2023-07-31T13:01:41;4.57;;;3.05;;
15183;SDS011;7693;49.266;7.104;2023-07-31T13:04:07;2.85;;;2.53;;
15183;SDS011;7693;49.266;7.104;2023-07-31T13:06:33;4.20;;;2.92;;
15183;SDS011;7693;49.266;7.104;2023-07-31T13:08:59;3.67;;;3.15;;
15183;SDS011;7693;49.266;7.104;2023-07-31T13:11:24;2.95;;;2.70;;
15183;SDS011;7693;49.266;7.104;2023-07-31T13:13:50;3.50;;;3.20;;
15183;SDS011;7693;49.266;7.104;2023-07-31T13:16:15;4.65;;;3.00;;
15183;SDS011;7693;49.266;7.104;2023-07-31T13:18:41;4.53;;;2.95;;
15183;SDS011;7693;49.266;7.104;2023-07-31T13:21:06;7.15;;;3.20;;
15183;SDS011;7693;49.266;7.104;2023-07-31T13:23:32;3.10;;;2.80;;
15183;SDS011;7693;49.266;7.104;2023-07-31T13:25:57;3.50;;;3.15;;
15183;SDS011;7693;49.266;7.104;2023-07-31T13:28:23;3.08;;;2.85;;
15183;SDS011;7693;49.266;7.104;2023-07-31T13:30:49;2.88;;;2.63;;
15183;SDS011;7693;49.266;7.104;2023-07-31T13:33:14;3.83;;;3.38;;
15183;SDS011;7693;49.266;7.104;2023-07-31T13:35:40;6.57;;;2.60;;
15183;SDS011;7693;49.266;7.104;2023-07-31T13:38:05;4.30;;;3.00;;
15183;SDS011;7693;49.266;7.104;2023-07-31T13:40:31;7.00;;;2.88;;
15183;SDS011;7693;49.266;7.104;2023-07-31T13:42:57;3.03;;;2.70;;
15183;SDS011;7693;49.266;7.104;2023-07-31T13:45:23;2.88;;;2.58;;
15183;SDS011;7693;49.266;7.104;2023-07-31T13:47:49;3.63;;;2.55;;
15183;SDS011;7693;49.266;7.104;2023-07-31T13:50:16;4.38;;;3.08;;
15183;SDS011;7693;49.266;7.104;2023-07-31T13:52:44;2.92;;;2.63;;
15183;SDS011;7693;49.266;7.104;2023-07-31T13:55:09;2.70;;;2.50;;
15183;SDS011;7693;49.266;7.104;2023-07-31T13:57:35;2.75;;;2.55;;
15183;SDS011;7693;49.266;7.104;2023-07-31T14:00:01;2.88;;;2.67;;
15183;SDS011;7693;49.266;7.104;2023-07-31T14:02:27;3.28;;;3.05;;
15183;SDS011;7693;49.266;7.104;2023-07-31T14:04:52;3.83;;;2.97;;
15183;SDS011;7693;49.266;7.104;2023-07-31T14:07:18;4.32;;;2.83;;
15183;SDS011;7693;49.266;7.104;2023-07-31T14:09:44;4.25;;;2.72;;
15183;SDS011;7693;49.266;7.104;2023-07-31T14:12:09;3.80;;;3.13;;
15183;SDS011;7693;49.266;7.104;2023-07-31T14:14:35;3.22;;;2.92;;
15183;SDS011;7693;49.266;7.104;2023-07-31T14:17:00;3.55;;;2.85;;
15183;SDS011;7693;49.266;7.104;2023-07-31T14:19:26;2.90;;;2.67;;
15183;SDS011;7693;49.266;7.104;2023-07-31T14:21:52;2.72;;;2.53;;
15183;SDS011;7693;49.266;7.104;2023-07-31T14:24:17;5.97;;;2.90;;
15183;SDS011;7693;49.266;7.104;2023-07-31T14:26:43;3.28;;;2.97;;
15183;SDS011;7693;49.266;7.104;2023-07-31T14:29:08;3.00;;;2.80;;
15183;SDS011;7693;49.266;7.104;2023-07-31T14:31:34;3.67;;;2.75;;
15183;SDS011;7693;49.266;7.104;2023-07-31T14:34:00;3.85;;;3.05;;
15183;SDS011;7693;49.266;7.104;2023-07-31T14:36:26;2.78;;;2.58;;
15183;SDS011;7693;49.266;7.104;2023-07-31T14:38:52;4.03;;;2.83;;
15183;SDS011;7693;49.266;7.104;2023-07-31T14:41:17;4.40;;;2.60;;
15183;SDS011;7693;49.266;7.104;2023-07-31T14:43:43;2.85;;;2.30;;
15183;SDS011;7693;49.266;7.104;2023-07-31T14:46:08;3.63;;;2.60;;
15183;SDS011;7693;49.266;7.104;2023-07-31T14:48:34;7.20;;;2.78;;
15183;SDS011;7693;49.266;7.104;2023-07-31T14:51:00;2.67;;;2.35;;
15183;SDS011;7693;49.266;7.104;2023-07-31T14:53:25;2.22;;;2.10;;
15183;SDS011;7693;49.266;7.104;2023-07-31T14:55:51;2.55;;;2.35;;
15183;SDS011;7693;49.266;7.104;2023-07-31T14:58:16;3.30;;;2.85;;
15183;SDS011;7693;49.266;7.104;2023-07-31T15:00:43;2.85;;;2.38;;
15183;SDS011;7693;49.266;7.104;2023-07-31T15:03:08;2.67;;;2.53;;
15183;SDS011;7693;49.266;7.104;2023-07-31T15:05:34;2.75;;;2.50;;
15183;SDS011;7693;49.266;7.104;2023-07-31T15:07:59;2.80;;;2.40;;
15183;SDS011;7693;49.266;7.104;2023-07-31T15:10:25;2.40;;;2.30;;
15183;SDS011;7693;49.266;7.104;2023-07-31T15:12:50;3.15;;;2.40;;
15183;SDS011;7693;49.266;7.104;2023-07-31T15:15:16;2.58;;;2.35;;
15183;SDS011;7693;49.266;7.104;2023-07-31T15:17:42;3.67;;;2.20;;
15183;SDS011;7693;49.266;7.104;2023-07-31T15:20:08;2.88;;;2.35;;
15183;SDS011;7693;49.266;7.104;2023-07-31T15:22:34;2.63;;;2.35;;
15183;SDS011;7693;49.266;7.104;2023-07-31T15:25:00;2.65;;;2.45;;
15183;SDS011;7693;49.266;7.104;2023-07-31T15:27:26;2.63;;;2.42;;
15183;SDS011;7693;49.266;7.104;2023-07-31T15:29:51;3.20;;;2.10;;
15183;SDS011;7693;49.266;7.104;2023-07-31T15:32:17;2.40;;;2.30;;
15183;SDS011;7693;49.266;7.104;2023-07-31T15:34:44;3.00;;;2.17;;
15183;SDS011;7693;49.266;7.104;2023-07-31T15:37:09;2.88;;;2.30;;
15183;SDS011;7693;49.266;7.104;2023-07-31T15:39:35;4.72;;;2.45;;
15183;SDS011;7693;49.266;7.104;2023-07-31T15:42:00;2.78;;;2.50;;
15183;SDS011;7693;49.266;7.104;2023-07-31T15:44:26;2.65;;;2.45;;
15183;SDS011;7693;49.266;7.104;2023-07-31T15:46:51;2.50;;;2.30;;
15183;SDS011;7693;49.266;7.104;2023-07-31T15:49:20;2.92;;;2.58;;
15183;SDS011;7693;49.266;7.104;2023-07-31T15:51:46;2.10;;;2.00;;
15183;SDS011;7693;49.266;7.104;2023-07-31T15:54:11;2.30;;;2.20;;
15183;SDS011;7693;49.266;7.104;2023-07-31T15:56:37;3.05;;;2.53;;
15183;SDS011;7693;49.266;7.104;2023-07-31T15:59:03;2.13;;;1.83;;
15183;SDS011;7693;49.266;7.104;2023-07-31T16:01:29;3.08;;;2.28;;
15183;SDS011;7693;49.266;7.104;2023-07-31T16:03:55;2.20;;;2.10;;
15183;SDS011;7693;49.266;7.104;2023-07-31T16:06:20;2.10;;;2.00;;
15183;SDS011;7693;49.266;7.104;2023-07-31T16:08:46;4.75;;;2.70;;
15183;SDS011;7693;49.266;7.104;2023-07-31T16:11:11;5.72;;;2.63;;
15183;SDS011;7693;49.266;7.104;2023-07-31T16:13:37;3.28;;;2.35;;
15183;SDS011;7693;49.266;7.104;2023-07-31T16:16:03;2.60;;;2.40;;
15183;SDS011;7693;49.266;7.104;2023-07-31T16:18:28;3.03;;;2.40;;
15183;SDS011;7693;49.266;7.104;2023-07-31T16:20:54;2.50;;;2.30;;
15183;SDS011;7693;49.266;7.104;2023-07-31T16:23:20;2.78;;;2.47;;
15183;SDS011;7693;49.266;7.104;2023-07-31T16:25:46;3.47;;;2.60;;
15183;SDS011;7693;49.266;7.104;2023-07-31T16:28:11;2.72;;;2.47;;
15183;SDS011;7693;49.266;7.104;2023-07-31T16:30:37;3.33;;;2.47;;
15183;SDS011;7693;49.266;7.104;2023-07-31T16:33:03;3.05;;;2.80;;
15183;SDS011;7693;49.266;7.104;2023-07-31T16:35:29;2.80;;;2.53;;
15183;SDS011;7693;49.266;7.104;2023-07-31T16:37:54;2.70;;;2.60;;
15183;SDS011;7693;49.266;7.104;2023-07-31T16:40:20;3.20;;;2.90;;
15183;SDS011;7693;49.266;7.104;2023-07-31T16:42:45;2.97;;;2.70;;
15183;SDS011;7693;49.266;7.104;2023-07-31T16:45:11;2.70;;;2.50;;
15183;SDS011;7693;49.266;7.104;2023-07-31T16:47:37;3.05;;;2.83;;
15183;SDS011;7693;49.266;7.104;2023-07-31T16:50:02;3.08;;;2.88;;
15183;SDS011;7693;49.266;7.104;2023-07-31T16:52:28;3.30;;;3.00;;
15183;SDS011;7693;49.266;7.104;2023-07-31T16:54:54;3.05;;;2.75;;
15183;SDS011;7693;49.266;7.104;2023-07-31T16:57:19;4.35;;;3.45;;
15183;SDS011;7693;49.266;7.104;2023-07-31T16:59:47;4.15;;;3.15;;
15183;SDS011;7693;49.266;7.104;2023-07-31T17:02:12;5.40;;;3.45;;
15183;SDS011;7693;49.266;7.104;2023-07-31T17:04:38;3.90;;;3.00;;
15183;SDS011;7693;49.266;7.104;2023-07-31T17:07:03;3.83;;;3.20;;
15183;SDS011;7693;49.266;7.104;2023-07-31T17:09:29;3.60;;;3.30;;
15183;SDS011;7693;49.266;7.104;2023-07-31T17:11:55;3.67;;;3.38;;
15183;SDS011;7693;49.266;7.104;2023-07-31T17:14:20;4.57;;;3.63;;
15183;SDS011;7693;49.266;7.104;2023-07-31T17:16:46;3.78;;;3.28;;
15183;SDS011;7693;49.266;7.104;2023-07-31T17:19:11;5.07;;;3.63;;
15183;SDS011;7693;49.266;7.104;2023-07-31T17:21:37;5.32;;;3.50;;
15183;SDS011;7693;49.266;7.104;2023-07-31T17:24:03;5.90;;;3.60;;
15183;SDS011;7693;49.266;7.104;2023-07-31T17:26:28;3.38;;;3.17;;
15183;SDS011;7693;49.266;7.104;2023-07-31T17:28:54;3.72;;;3.42;;
15183;SDS011;7693;49.266;7.104;2023-07-31T17:31:20;3.60;;;3.30;;
15183;SDS011;7693;49.266;7.104;2023-07-31T17:33:46;4.85;;;3.45;;
15183;SDS011;7693;49.266;7.104;2023-07-31T17:36:14;3.28;;;3.08;;
15183;SDS011;7693;49.266;7.104;2023-07-31T17:38:40;3.72;;;3.25;;
15183;SDS011;7693;49.266;7.104;2023-07-31T17:41:05;3.83;;;3.50;;
15183;SDS011;7693;49.266;7.104;2023-07-31T17:43:31;5.50;;;3.20;;
15183;SDS011;7693;49.266;7.104;2023-07-31T17:45:57;3.20;;;3.00;;
15183;SDS011;7693;49.266;7.104;2023-07-31T17:48:22;3.97;;;3.28;;
15183;SDS011;7693;49.266;7.104;2023-07-31T17:50:51;4.15;;;3.50;;
15183;SDS011;7693;49.266;7.104;2023-07-31T17:53:18;4.03;;;3.20;;
15183;SDS011;7693;49.266;7.104;2023-07-31T17:55:46;3.70;;;3.40;;
15183;SDS011;7693;49.266;7.104;2023-07-31T17:58:13;3.25;;;2.95;;
15183;SDS011;7693;49.266;7.104;2023-07-31T18:00:39;3.70;;;3.20;;
15183;SDS011;7693;49.266;7.104;2023-07-31T18:03:05;7.55;;;3.13;;
15183;SDS011;7693;49.266;7.104;2023-07-31T18:05:36;4.20;;;3.30;;
15183;SDS011;7693;49.266;7.104;2023-07-31T18:08:02;2.83;;;2.70;;
15183;SDS011;7693;49.266;7.104;2023-07-31T18:10:28;2.90;;;2.70;;
15183;SDS011;7693;49.266;7.104;2023-07-31T18:12:53;4.18;;;3.00;;
15183;SDS011;7693;49.266;7.104;2023-07-31T18:15:19;3.00;;;2.80;;
15183;SDS011;7693;49.266;7.104;2023-07-31T18:17:45;4.20;;;2.80;;
15183;SDS011;7693;49.266;7.104;2023-07-31T18:20:10;3.28;;;3.08;;
15183;SDS011;7693;49.266;7.104;2023-07-31T18:22:37;3.13;;;2.92;;
15183;SDS011;7693;49.266;7.104;2023-07-31T18:25:03;3.13;;;2.90;;
15183;SDS011;7693;49.266;7.104;2023-07-31T18:27:29;3.53;;;2.60;;
15183;SDS011;7693;49.266;7.104;2023-07-31T18:29:55;3.10;;;2.90;;
15183;SDS011;7693;49.266;7.104;2023-07-31T18:32:20;2.78;;;2.60;;
15183;SDS011;7693;49.266;7.104;2023-07-31T18:34:46;2.92;;;2.72;;
15183;SDS011;7693;49.266;7.104;2023-07-31T18:37:11;3.45;;;3.13;;
15183;SDS011;7693;49.266;7.104;2023-07-31T18:39:37;4.55;;;2.97;;
15183;SDS011;7693;49.266;7.104;2023-07-31T18:42:03;3.63;;;3.40;;
15183;SDS011;7693;49.266;7.104;2023-07-31T18:44:28;3.50;;;2.97;;
15183;SDS011;7693;49.266;7.104;2023-07-31T18:46:54;2.90;;;2.70;;
15183;SDS011;7693;49.266;7.104;2023-07-31T18:49:19;3.42;;;3.13;;
15183;SDS011;7693;49.266;7.104;2023-07-31T18:51:45;3.53;;;3.22;;
15183;SDS011;7693;49.266;7.104;2023-07-31T18:54:12;4.13;;;3.35;;
15183;SDS011;7693;49.266;7.104;2023-07-31T18:56:38;3.17;;;2.75;;
15183;SDS011;7693;49.266;7.104;2023-07-31T18:59:03;3.47;;;3.17;;
15183;SDS011;7693;49.266;7.104;2023-07-31T19:01:29;4.13;;;3.80;;
15183;SDS011;7693;49.266;7.104;2023-07-31T19:03:54;3.60;;;3.28;;
15183;SDS011;7693;49.266;7.104;2023-07-31T19:06:20;4.38;;;3.92;;
15183;SDS011;7693;49.266;7.104;2023-07-31T19:08:45;4.13;;;3.65;;
15183;SDS011;7693;49.266;7.104;2023-07-31T19:11:12;5.30;;;3.58;;
15183;SDS011;7693;49.266;7.104;2023-07-31T19:13:38;4.88;;;3.60;;
15183;SDS011;7693;49.266;7.104;2023-07-31T19:16:05;4.78;;;3.58;;
15183;SDS011;7693;49.266;7.104;2023-07-31T19:18:31;4.05;;;3.75;;
15183;SDS011;7693;49.266;7.104;2023-07-31T19:20:56;3.75;;;3.45;;
15183;SDS011;7693;49.266;7.104;2023-07-31T19:23:22;4.10;;;3.70;;
15183;SDS011;7693;49.266;7.104;2023-07-31T19:25:48;3.83;;;3.55;;
15183;SDS011;7693;49.266;7.104;2023-07-31T19:28:13;7.13;;;3.92;;
15183;SDS011;7693;49.266;7.104;2023-07-31T19:30:39;4.55;;;3.53;;
15183;SDS011;7693;49.266;7.104;2023-07-31T19:33:06;5.32;;;3.72;;
15183;SDS011;7693;49.266;7.104;2023-07-31T19:35:31;4.18;;;3.78;;
15183;SDS011;7693;49.266;7.104;2023-07-31T19:37:57;4.95;;;3.50;;
15183;SDS011;7693;49.266;7.104;2023-07-31T19:40:22;4.15;;;3.70;;
15183;SDS011;7693;49.266;7.104;2023-07-31T19:42:50;4.22;;;3.42;;
15183;SDS011;7693;49.266;7.104;2023-07-31T19:45:17;4.13;;;3.60;;
15183;SDS011;7693;49.266;7.104;2023-07-31T19:47:43;4.00;;;3.58;;
15183;SDS011;7693;49.266;7.104;2023-07-31T19:50:08;4.78;;;3.90;;
15183;SDS011;7693;49.266;7.104;2023-07-31T19:52:34;4.53;;;3.50;;
15183;SDS011;7693;49.266;7.104;2023-07-31T19:55:00;4.03;;;3.70;;
15183;SDS011;7693;49.266;7.104;2023-07-31T19:57:25;7.88;;;3.67;;
15183;SDS011;7693;49.266;7.104;2023-07-31T19:59:51;4.82;;;3.45;;
15183;SDS011;7693;49.266;7.104;2023-07-31T20:02:17;3.70;;;3.40;;
15183;SDS011;7693;49.266;7.104;2023-07-31T20:04:42;7.07;;;4.05;;
15183;SDS011;7693;49.266;7.104;2023-07-31T20:07:08;5.70;;;3.80;;
15183;SDS011;7693;49.266;7.104;2023-07-31T20:09:34;8.73;;;3.92;;
15183;SDS011;7693;49.266;7.104;2023-07-31T20:11:59;3.83;;;3.53;;
15183;SDS011;7693;49.266;7.104;2023-07-31T20:14:25;4.68;;;3.78;;
15183;SDS011;7693;49.266;7.104;2023-07-31T20:16:50;6.32;;;4.03;;
15183;SDS011;7693;49.266;7.104;2023-07-31T20:19:16;5.75;;;4.10;;
15183;SDS011;7693;49.266;7.104;2023-07-31T20:21:42;4.07;;;3.70;;
15183;SDS011;7693;49.266;7.104;2023-07-31T20:24:07;6.93;;;4.18;;
15183;SDS011;7693;49.266;7.104;2023-07-31T20:26:34;4.30;;;3.90;;
15183;SDS011;7693;49.266;7.104;2023-07-31T20:29:02;3.97;;;3.50;;
15183;SDS011;7693;49.266;7.104;2023-07-31T20:31:28;4.30;;;3.60;;
15183;SDS011;7693;49.266;7.104;2023-07-31T20:33:54;3.88;;;3.50;;
15183;SDS011;7693;49.266;7.104;2023-07-31T20:36:20;4.10;;;3.45;;
15183;SDS011;7693;49.266;7.104;2023-07-31T20:38:45;4.50;;;4.03;;
15183;SDS011;7693;49.266;7.104;2023-07-31T20:41:11;4.38;;;3.38;;
15183;SDS011;7693;49.266;7.104;2023-07-31T20:43:36;3.60;;;3.40;;
15183;SDS011;7693;49.266;7.104;2023-07-31T20:46:02;5.10;;;3.63;;
15183;SDS011;7693;49.266;7.104;2023-07-31T20:48:28;3.95;;;3.45;;
15183;SDS011;7693;49.266;7.104;2023-07-31T20:50:53;4.63;;;3.95;;
15183;SDS011;7693;49.266;7.104;2023-07-31T20:53:23;5.43;;;3.97;;
15183;SDS011;7693;49.266;7.104;2023-07-31T20:55:49;6.80;;;3.58;;
15183;SDS011;7693;49.266;7.104;2023-07-31T20:58:14;4.63;;;3.30;;
15183;SDS011;7693;49.266;7.104;2023-07-31T21:00:40;3.75;;;3.47;;
15183;SDS011;7693;49.266;7.104;2023-07-31T21:03:08;3.83;;;3.53;;
15183;SDS011;7693;49.266;7.104;2023-07-31T21:05:34;4.85;;;3.70;;
15183;SDS011;7693;49.266;7.104;2023-07-31T21:08:00;3.95;;;3.53;;
15183;SDS011;7693;49.266;7.104;2023-07-31T21:10:25;4.90;;;4.10;;
15183;SDS011;7693;49.266;7.104;2023-07-31T21:12:51;4.25;;;3.17;;
15183;SDS011;7693;49.266;7.104;2023-07-31T21:15:16;4.18;;;3.72;;
15183;SDS011;7693;49.266;7.104;2023-07-31T21:17:42;3.45;;;3.20;;
15183;SDS011;7693;49.266;7.104;2023-07-31T21:20:08;5.80;;;3.67;;
15183;SDS011;7693;49.266;7.104;2023-07-31T21:22:34;3.67;;;3.38;;
15183;SDS011;7693;49.266;7.104;2023-07-31T21:24:59;4.43;;;3.92;;
15183;SDS011;7693;49.266;7.104;2023-07-31T21:27:25;4.68;;;4.18;;
15183;SDS011;7693;49.266;7.104;2023-07-31T21:29:51;4.47;;;3.70;;
15183;SDS011;7693;49.266;7.104;2023-07-31T21:32:17;4.57;;;3.97;;
15183;SDS011;7693;49.266;7.104;2023-07-31T21:34:43;3.97;;;3.67;;
15183;SDS011;7693;49.266;7.104;2023-07-31T21:37:09;3.83;;;3.53;;
15183;SDS011;7693;49.266;7.104;2023-07-31T21:39:36;4.82;;;3.67;;
15183;SDS011;7693;49.266;7.104;2023-07-31T21:42:02;3.75;;;3.42;;
15183;SDS011;7693;49.266;7.104;2023-07-31T21:44:28;4.22;;;3.92;;
15183;SDS011;7693;49.266;7.104;2023-07-31T21:46:54;4.00;;;3.60;;
15183;SDS011;7693;49.266;7.104;2023-07-31T21:49:20;4.13;;;3.80;;
15183;SDS011;7693;49.266;7.104;2023-07-31T21:51:45;4.18;;;3.78;;
15183;SDS011;7693;49.266;7.104;2023-07-31T21:54:11;4.25;;;3.85;;
15183;SDS011;7693;49.266;7.104;2023-07-31T21:56:36;5.43;;;3.70;;
15183;SDS011;7693;49.266;7.104;2023-07-31T21:59:02;4.53;;;3.50;;
15183;SDS011;7693;49.266;7.104;2023-07-31T22:01:27;4.93;;;3.97;;
15183;SDS011;7693;49.266;7.104;2023-07-31T22:03:53;4.72;;;3.53;;